Time;durP1;ratioP1;P1;durP2;ratioP2;P2;SDS_P1;SDS_P2;PMS_P1;PMS_P2;Temp;Humidity;BMP_temperature;BMP_pressure;BME280_temperature;BME280_humidity;BME280_pressure;Samples;Min_cycle;Max_cycle;Signal;HPM_P1;HPM_P2
2022/06/30 00:00:44;;;;;;;4.60;3.80;;;22.80;96.70;;;;;;5049036;28;20228;-75
2022/06/30 00:03:10;;;;;;;6.30;4.10;;;22.80;96.90;;;;;;5050159;28;20568;-74
2022/06/30 00:05:35;;;;;;;4.37;3.23;;;22.70;97.10;;;;;;5051912;28;20617;-74
2022/06/30 00:08:02;;;;;;;4.90;4.40;;;22.70;97.40;;;;;;5051476;28;20564;-74
2022/06/30 00:10:28;;;;;;;4.50;3.63;;;22.70;97.80;;;;;;5049942;28;20173;-75
2022/06/30 00:12:54;;;;;;;4.97;3.67;;;22.70;98.20;;;;;;5050215;28;21354;-75
2022/06/30 00:15:20;;;;;;;4.47;4.07;;;22.70;98.50;;;;;;5033341;28;20662;-74
2022/06/30 00:17:46;;;;;;;5.60;4.40;;;22.60;98.80;;;;;;5051633;28;20671;-80
2022/06/30 00:20:12;;;;;;;4.43;3.50;;;22.70;99.20;;;;;;5050866;28;20975;-80
2022/06/30 00:22:38;;;;;;;4.00;3.53;;;22.60;99.40;;;;;;5048519;28;20606;-80
2022/06/30 00:25:05;;;;;;;6.20;3.83;;;22.60;99.70;;;;;;5047338;28;20581;-80
2022/06/30 00:27:31;;;;;;;5.40;4.27;;;22.60;99.90;;;;;;5044024;28;20592;-80
2022/06/30 00:29:56;;;;;;;5.13;4.57;;;22.60;99.90;;;;;;5060373;28;20601;-80
2022/06/30 00:32:22;;;;;;;4.07;3.50;;;22.60;99.90;;;;;;5070682;28;20591;-80
2022/06/30 00:34:48;;;;;;;6.23;4.50;;;22.60;99.90;;;;;;5058795;28;20169;-79
2022/06/30 00:37:14;;;;;;;5.20;4.53;;;22.50;99.90;;;;;;5051328;28;20967;-80
2022/06/30 00:39:40;;;;;;;4.17;3.77;;;22.60;99.90;;;;;;5049737;28;20232;-80
2022/06/30 00:42:06;;;;;;;5.33;4.93;;;22.60;99.90;;;;;;5053934;28;20682;-80
2022/06/30 00:44:33;;;;;;;4.40;4.00;;;22.50;99.90;;;;;;5051654;28;20165;-80
2022/06/30 00:46:58;;;;;;;4.90;4.40;;;22.50;99.90;;;;;;5049835;28;20962;-80
2022/06/30 00:49:24;;;;;;;5.27;4.07;;;22.60;99.90;;;;;;5066516;28;20602;-80
2022/06/30 00:51:50;;;;;;;4.53;4.00;;;22.50;99.90;;;;;;5049984;28;20640;-79
2022/06/30 00:54:17;;;;;;;4.90;3.93;;;22.50;99.90;;;;;;5050201;28;20571;-79
2022/06/30 00:56:46;;;;;;;4.83;4.40;;;22.60;99.90;;;;;;5054770;28;21118;-80
2022/06/30 00:59:14;;;;;;;4.60;4.20;;;22.60;99.90;;;;;;5059165;28;20653;-80
2022/06/30 01:01:42;;;;;;;4.27;3.87;;;22.60;99.90;;;;;;5043296;28;20617;-80
2022/06/30 01:04:08;;;;;;;6.50;4.50;;;22.60;99.90;;;;;;5053157;28;20575;-80
2022/06/30 01:06:35;;;;;;;4.43;4.03;;;22.60;99.90;;;;;;5052564;28;20582;-80
2022/06/30 01:09:00;;;;;;;6.03;5.23;;;22.60;99.90;;;;;;5054798;28;20594;-80
2022/06/30 01:14:10;;;;;;;4.80;4.40;;;22.60;99.90;;;;;;5053182;28;20579;-80
2022/06/30 01:16:39;;;;;;;4.87;4.47;;;22.60;99.90;;;;;;5054391;28;20580;-79
2022/06/30 01:19:06;;;;;;;4.27;3.97;;;22.50;99.90;;;;;;5056103;28;20279;-80
2022/06/30 01:21:32;;;;;;;5.03;3.93;;;22.50;99.90;;;;;;5054496;28;20603;-79
2022/06/30 01:23:58;;;;;;;3.60;3.30;;;22.50;99.90;;;;;;5067700;28;20598;-80
2022/06/30 01:26:27;;;;;;;5.47;4.97;;;22.50;99.90;;;;;;5077974;28;20203;-79
2022/06/30 01:28:53;;;;;;;5.37;4.87;;;22.40;99.90;;;;;;5058306;28;20965;-79
2022/06/30 01:31:19;;;;;;;4.83;4.33;;;22.40;99.90;;;;;;5054319;28;20595;-79
2022/06/30 01:33:45;;;;;;;5.13;4.63;;;22.40;99.90;;;;;;5054429;28;20654;-80
2022/06/30 01:36:11;;;;;;;4.97;4.57;;;22.30;99.90;;;;;;5053078;28;20571;-79
2022/06/30 01:38:37;;;;;;;4.87;4.33;;;22.30;99.90;;;;;;5053770;28;20575;-79
2022/06/30 01:41:03;;;;;;;4.37;3.97;;;22.20;99.90;;;;;;5051473;28;20611;-80
2022/06/30 01:43:28;;;;;;;5.00;4.03;;;22.20;99.90;;;;;;5052339;28;20682;-79
2022/06/30 01:45:54;;;;;;;5.53;5.03;;;22.20;99.90;;;;;;5052419;28;20943;-79
2022/06/30 01:48:20;;;;;;;5.47;4.43;;;22.20;99.90;;;;;;5052242;28;20180;-79
2022/06/30 01:50:46;;;;;;;6.03;4.57;;;22.10;99.90;;;;;;5051376;28;20220;-79
2022/06/30 01:53:12;;;;;;;4.90;4.50;;;22.10;99.90;;;;;;5053430;28;20667;-79
2022/06/30 01:55:38;;;;;;;5.10;4.60;;;22.10;99.90;;;;;;5062019;28;20602;-80
2022/06/30 01:58:04;;;;;;;5.10;4.60;;;22.10;99.90;;;;;;5052415;28;20183;-79
2022/06/30 02:00:30;;;;;;;5.43;4.90;;;22.00;99.90;;;;;;5034663;28;20974;-80
2022/06/30 02:02:56;;;;;;;11.43;4.97;;;22.00;99.90;;;;;;5053176;28;20579;-80
2022/06/30 02:05:23;;;;;;;6.80;4.47;;;22.00;99.90;;;;;;5034944;28;20619;-80
2022/06/30 02:07:49;;;;;;;4.67;4.30;;;21.90;99.90;;;;;;5053293;28;20609;-80
2022/06/30 02:10:19;;;;;;;5.10;4.30;;;21.90;99.90;;;;;;5051595;28;20583;-80
2022/06/30 02:12:45;;;;;;;5.30;4.70;;;21.90;99.90;;;;;;5052355;28;20686;-80
2022/06/30 02:15:15;;;;;;;5.23;4.83;;;21.90;99.90;;;;;;5052968;28;20564;-79
2022/06/30 02:17:41;;;;;;;7.20;4.70;;;21.90;99.90;;;;;;5052940;28;20571;-79
2022/06/30 02:20:08;;;;;;;6.27;5.67;;;21.90;99.90;;;;;;5052436;28;20668;-79
2022/06/30 02:22:38;;;;;;;5.10;4.60;;;21.90;99.90;;;;;;5050919;28;20649;-80
2022/06/30 02:25:06;;;;;;;4.63;4.23;;;21.90;99.90;;;;;;5052642;28;20568;-79
2022/06/30 02:27:32;;;;;;;4.63;4.03;;;21.90;99.90;;;;;;5052638;28;20567;-79
2022/06/30 02:29:58;;;;;;;4.00;3.70;;;21.90;99.90;;;;;;5051127;28;20563;-80
2022/06/30 02:32:24;;;;;;;4.73;4.13;;;21.90;99.90;;;;;;5055751;28;20852;-80
2022/06/30 02:34:51;;;;;;;5.00;4.60;;;21.90;99.90;;;;;;5052511;28;20645;-80
2022/06/30 02:37:17;;;;;;;5.30;4.40;;;21.90;99.90;;;;;;5052601;28;20575;-80
2022/06/30 02:39:43;;;;;;;5.00;4.57;;;21.90;99.90;;;;;;5052141;28;20618;-80
2022/06/30 02:42:09;;;;;;;5.77;4.00;;;21.90;99.90;;;;;;5051446;28;20650;-80
2022/06/30 02:44:36;;;;;;;5.43;4.33;;;21.80;99.90;;;;;;5052384;28;21027;-80
2022/06/30 02:47:03;;;;;;;5.70;4.70;;;21.80;99.90;;;;;;5052448;28;20571;-79
2022/06/30 02:49:29;;;;;;;5.33;4.53;;;21.70;99.90;;;;;;5052194;28;20572;-79
2022/06/30 02:51:55;;;;;;;4.37;3.97;;;21.70;99.90;;;;;;5067061;28;20716;-80
2022/06/30 02:54:21;;;;;;;5.17;4.67;;;21.60;99.90;;;;;;5052192;28;20663;-80
2022/06/30 02:56:47;;;;;;;4.90;4.50;;;21.60;99.90;;;;;;5052403;28;20165;-80
2022/06/30 02:59:13;;;;;;;5.70;5.20;;;21.60;99.90;;;;;;5052389;28;20846;-80
2022/06/30 03:01:39;;;;;;;5.57;4.83;;;21.50;99.90;;;;;;5051405;28;20588;-80
2022/06/30 03:04:05;;;;;;;4.53;4.13;;;21.50;99.90;;;;;;5050790;28;20598;-80
2022/06/30 03:06:33;;;;;;;5.03;4.63;;;21.40;99.90;;;;;;5068035;28;20572;-80
2022/06/30 03:09:00;;;;;;;5.87;5.37;;;21.40;99.90;;;;;;5057267;28;20568;-79
2022/06/30 03:11:27;;;;;;;5.03;4.60;;;21.30;99.90;;;;;;5051237;28;20607;-80
2022/06/30 03:13:53;;;;;;;6.50;5.90;;;21.40;99.90;;;;;;5052482;28;20583;-80
2022/06/30 03:16:19;;;;;;;5.77;5.27;;;21.30;99.90;;;;;;5052247;28;20913;-80
2022/06/30 03:18:45;;;;;;;6.50;5.50;;;21.30;99.90;;;;;;5050852;28;20611;-79
2022/06/30 03:21:12;;;;;;;6.10;5.50;;;21.30;99.90;;;;;;5050985;28;21126;-80
2022/06/30 03:23:38;;;;;;;6.80;6.13;;;21.30;99.90;;;;;;5050455;28;20578;-80
2022/06/30 03:26:04;;;;;;;5.60;5.10;;;21.30;99.90;;;;;;5050544;28;20572;-80
2022/06/30 03:28:31;;;;;;;5.40;4.90;;;21.30;99.90;;;;;;5050533;28;21054;-80
2022/06/30 03:30:57;;;;;;;5.70;4.90;;;21.30;99.90;;;;;;5050890;28;20591;-80
2022/06/30 03:33:23;;;;;;;5.47;5.07;;;21.30;99.90;;;;;;5051719;28;20904;-80
2022/06/30 03:35:49;;;;;;;6.10;5.60;;;21.30;99.90;;;;;;5050759;28;20659;-80
2022/06/30 03:38:15;;;;;;;6.57;6.07;;;21.30;99.90;;;;;;5051400;28;20588;-81
2022/06/30 03:40:41;;;;;;;15.53;5.73;;;21.30;99.90;;;;;;5054441;28;20643;-80
2022/06/30 03:43:08;;;;;;;5.53;5.13;;;21.30;99.90;;;;;;5054026;28;20169;-80
2022/06/30 03:45:34;;;;;;;5.80;5.30;;;21.30;99.90;;;;;;5057804;28;20568;-80
2022/06/30 03:48:01;;;;;;;4.93;4.53;;;21.40;99.90;;;;;;5051186;28;20680;-80
2022/06/30 03:50:27;;;;;;;5.33;4.83;;;21.40;99.90;;;;;;5032844;28;20587;-80
2022/06/30 03:52:53;;;;;;;7.63;4.57;;;21.50;99.90;;;;;;5050494;28;20576;-80
2022/06/30 03:55:19;;;;;;;4.43;4.03;;;21.50;99.90;;;;;;5050019;28;20770;-79
2022/06/30 03:57:46;;;;;;;5.57;5.07;;;21.50;99.90;;;;;;5051416;28;20974;-80
2022/06/30 04:00:12;;;;;;;5.43;4.97;;;21.50;99.90;;;;;;5051038;28;20615;-80
2022/06/30 04:02:38;;;;;;;6.63;5.33;;;21.50;99.90;;;;;;5049198;28;20611;-79
2022/06/30 04:05:04;;;;;;;5.27;4.77;;;21.50;99.90;;;;;;5051232;28;20566;-75
2022/06/30 04:07:30;;;;;;;5.80;4.97;;;21.50;99.90;;;;;;5051373;28;20172;-75
2022/06/30 04:09:56;;;;;;;5.97;5.37;;;21.50;99.90;;;;;;5051123;28;21188;-75
2022/06/30 04:12:22;;;;;;;5.37;4.97;;;21.40;99.90;;;;;;5050607;28;20796;-74
2022/06/30 04:14:48;;;;;;;4.77;4.37;;;21.40;99.90;;;;;;5051896;28;20678;-75
2022/06/30 04:17:14;;;;;;;5.30;4.80;;;21.40;99.90;;;;;;5050969;28;20617;-75
2022/06/30 04:19:40;;;;;;;6.00;5.47;;;21.30;99.90;;;;;;5060715;28;21177;-75
2022/06/30 04:22:06;;;;;;;5.77;5.27;;;21.30;99.90;;;;;;5072514;28;20195;-75
2022/06/30 04:24:32;;;;;;;5.33;4.60;;;21.40;99.90;;;;;;5069290;28;20218;-75
2022/06/30 04:26:57;;;;;;;5.17;4.73;;;21.30;99.90;;;;;;5069538;28;20601;-75
2022/06/30 04:29:23;;;;;;;4.97;4.57;;;21.40;99.90;;;;;;5072675;28;20176;-75
2022/06/30 04:34:34;;;;;;;5.07;4.60;;;21.30;99.90;;;;;;5074777;28;21235;-75
2022/06/30 04:36:59;;;;;;;5.37;4.93;;;21.30;99.90;;;;;;5073294;28;20574;-75
2022/06/30 04:39:25;;;;;;;5.43;5.03;;;21.30;99.90;;;;;;5074500;28;20226;-75
2022/06/30 04:41:51;;;;;;;5.20;4.70;;;21.30;99.90;;;;;;5072510;28;20245;-75
2022/06/30 04:44:17;;;;;;;5.57;5.07;;;21.40;99.90;;;;;;5074434;28;20188;-75
2022/06/30 04:46:43;;;;;;;5.83;5.23;;;21.40;99.90;;;;;;5074561;28;20594;-75
2022/06/30 04:49:09;;;;;;;5.73;5.07;;;21.40;99.90;;;;;;5071737;28;20233;-75
2022/06/30 04:51:34;;;;;;;6.57;4.60;;;21.50;99.90;;;;;;5061872;28;20284;-75
2022/06/30 04:54:00;;;;;;;5.50;5.10;;;21.50;99.90;;;;;;5071380;28;20179;-75
2022/06/30 04:56:26;;;;;;;8.27;5.30;;;21.50;99.90;;;;;;5074431;28;20646;-75
2022/06/30 04:58:52;;;;;;;5.10;4.70;;;21.60;99.90;;;;;;5075547;28;20720;-75
2022/06/30 05:01:18;;;;;;;5.70;5.20;;;21.60;99.90;;;;;;5073317;28;20200;-75
2022/06/30 05:03:43;;;;;;;7.10;5.60;;;21.70;99.90;;;;;;5074358;28;20168;-75
2022/06/30 05:06:09;;;;;;;5.93;5.33;;;21.80;99.90;;;;;;5075091;28;20168;-75
2022/06/30 05:08:35;;;;;;;5.27;4.77;;;21.80;99.90;;;;;;5076574;28;20180;-75
2022/06/30 05:11:02;;;;;;;5.60;5.20;;;21.90;99.90;;;;;;5055783;28;21184;-75
2022/06/30 05:13:27;;;;;;;5.20;4.70;;;22.00;99.90;;;;;;5074231;28;20606;-75
2022/06/30 05:15:53;;;;;;;6.27;5.70;;;22.20;99.90;;;;;;5075477;28;20563;-75
2022/06/30 05:18:19;;;;;;;5.33;4.83;;;22.30;99.90;;;;;;5076024;28;20587;-75
2022/06/30 05:20:45;;;;;;;6.20;5.57;;;22.40;99.90;;;;;;5074624;28;20640;-75
2022/06/30 05:23:11;;;;;;;5.63;5.20;;;22.50;99.90;;;;;;5075417;28;20673;-76
2022/06/30 05:28:22;;;;;;;11.50;4.70;;;22.70;99.90;;;;;;5075729;28;20562;-75
2022/06/30 05:30:51;;;;;;;6.70;6.10;;;22.70;99.90;;;;;;5073695;28;20697;-75
2022/06/30 05:33:21;;;;;;;5.97;5.47;;;22.80;99.90;;;;;;5076738;28;20200;-75
2022/06/30 05:35:48;;;;;;;5.10;4.70;;;22.80;99.90;;;;;;5077974;28;20586;-75
2022/06/30 05:38:15;;;;;;;5.60;5.10;;;23.00;99.90;;;;;;5075640;28;20573;-75
2022/06/30 05:40:42;;;;;;;5.00;4.47;;;23.10;99.90;;;;;;5070843;28;20629;-76
2022/06/30 05:43:12;;;;;;;5.00;4.50;;;23.30;99.90;;;;;;5047523;28;20595;-75
2022/06/30 05:45:38;;;;;;;5.77;5.20;;;23.50;99.90;;;;;;5057879;28;20559;-75
2022/06/30 05:48:04;;;;;;;7.50;6.90;;;23.80;99.90;;;;;;5054899;28;20566;-75
2022/06/30 05:50:30;;;;;;;6.93;6.23;;;24.20;99.90;;;;;;5067957;28;20571;-75
2022/06/30 05:52:57;;;;;;;7.03;6.43;;;24.50;99.90;;;;;;5053335;28;20554;-75
2022/06/30 05:55:22;;;;;;;7.17;6.57;;;25.00;99.90;;;;;;5054426;28;20173;-78
2022/06/30 05:57:54;;;;;;;7.73;6.90;;;25.50;99.90;;;;;;5054626;28;20586;-79
2022/06/30 06:00:22;;;;;;;6.73;6.13;;;26.00;99.90;;;;;;5053111;28;20207;-79
2022/06/30 06:02:48;;;;;;;7.70;5.80;;;26.90;99.90;;;;;;5052784;28;20611;-78
2022/06/30 06:05:14;;;;;;;7.20;6.60;;;27.60;99.90;;;;;;5048539;28;20596;-78
2022/06/30 06:07:44;;;;;;;6.33;5.80;;;28.20;99.90;;;;;;5047464;28;20587;-78
2022/06/30 06:10:10;;;;;;;5.67;4.83;;;28.80;99.90;;;;;;5018382;28;21107;-78
2022/06/30 06:12:36;;;;;;;6.37;5.23;;;29.70;99.90;;;;;;5064102;28;20603;-79
2022/06/30 06:15:03;;;;;;;6.83;5.60;;;30.30;99.90;;;;;;5068115;28;20576;-78
2022/06/30 06:17:30;;;;;;;5.00;4.60;;;31.00;99.90;;;;;;5061501;28;20555;-78
2022/06/30 06:19:56;;;;;;;4.63;4.20;;;31.60;99.90;;;;;;5055881;28;20630;-78
2022/06/30 06:22:22;;;;;;;4.47;4.17;;;32.30;99.90;;;;;;5066574;28;20623;-79
2022/06/30 06:24:48;;;;;;;5.57;5.17;;;33.00;99.90;;;;;;5060088;28;21086;-80
2022/06/30 06:27:14;;;;;;;5.20;4.80;;;33.80;99.90;;;;;;5048774;28;20569;-81
2022/06/30 06:29:40;;;;;;;4.43;4.03;;;34.30;99.90;;;;;;5053359;28;20609;-81
2022/06/30 06:32:06;;;;;;;4.67;4.13;;;34.70;99.90;;;;;;5052404;28;20231;-82
2022/06/30 06:34:32;;;;;;;5.27;4.63;;;35.20;99.20;;;;;;5053282;28;20169;-83
2022/06/30 06:36:58;;;;;;;4.00;3.70;;;35.90;98.20;;;;;;5056562;28;20625;-81
2022/06/30 06:39:23;;;;;;;4.37;3.97;;;36.40;97.20;;;;;;5039495;28;20206;-79
2022/06/30 06:41:49;;;;;;;3.90;3.57;;;37.00;94.90;;;;;;5032273;28;20196;-82
2022/06/30 06:44:15;;;;;;;4.70;3.80;;;37.50;93.40;;;;;;5045172;28;20173;-82
2022/06/30 06:46:41;;;;;;;3.83;3.40;;;37.80;91.40;;;;;;5055513;28;20223;-82
2022/06/30 06:49:07;;;;;;;4.33;3.67;;;38.20;90.20;;;;;;5059298;28;20164;-83
2022/06/30 06:51:34;;;;;;;4.30;3.77;;;38.70;88.40;;;;;;5051843;28;20197;-83
2022/06/30 06:54:01;;;;;;;4.40;3.40;;;39.20;85.00;;;;;;5050351;28;20571;-83
2022/06/30 06:56:27;;;;;;;7.07;3.17;;;39.60;82.20;;;;;;5052129;28;20572;-83
2022/06/30 06:58:53;;;;;;;5.23;3.93;;;39.90;75.80;;;;;;5052146;28;21277;-81
2022/06/30 07:01:19;;;;;;;5.10;3.40;;;40.10;74.40;;;;;;5051778;28;20207;-82
2022/06/30 07:03:44;;;;;;;3.77;3.00;;;40.50;73.30;;;;;;5052236;28;20161;-82
2022/06/30 07:06:10;;;;;;;3.23;2.93;;;40.90;71.40;;;;;;5050573;28;20347;-83
2022/06/30 07:08:36;;;;;;;3.53;3.23;;;41.40;69.60;;;;;;5051619;28;20186;-83
2022/06/30 07:11:03;;;;;;;4.00;3.53;;;41.90;67.70;;;;;;5071645;28;20208;-82
2022/06/30 07:13:31;;;;;;;3.10;2.80;;;42.30;64.80;;;;;;5073647;28;20666;-82
2022/06/30 07:15:57;;;;;;;2.50;2.30;;;42.50;61.70;;;;;;5073691;28;20570;-82
2022/06/30 07:18:22;;;;;;;6.70;3.10;;;42.80;60.50;;;;;;5073811;28;20589;-83
2022/06/30 07:20:49;;;;;;;3.20;2.90;;;43.00;59.40;;;;;;5072033;28;20630;-83
2022/06/30 07:23:15;;;;;;;3.47;3.07;;;43.40;58.00;;;;;;5072410;28;20172;-83
2022/06/30 07:25:40;;;;;;;2.70;2.50;;;43.70;57.00;;;;;;5075393;28;20574;-83
2022/06/30 07:28:07;;;;;;;3.20;2.90;;;43.80;55.20;;;;;;5073629;28;20539;-83
2022/06/30 07:30:33;;;;;;;5.40;2.67;;;43.40;53.20;;;;;;5072735;28;20170;-83
2022/06/30 07:32:58;;;;;;;5.77;3.07;;;43.10;52.00;;;;;;5073790;28;20598;-82
2022/06/30 07:35:25;;;;;;;3.73;2.47;;;42.90;51.60;;;;;;5074324;28;20612;-82
2022/06/30 07:37:51;;;;;;;3.40;2.37;;;43.00;51.60;;;;;;5073259;28;20247;-83
2022/06/30 07:40:17;;;;;;;2.70;2.20;;;43.20;51.90;;;;;;5071324;28;20649;-82
2022/06/30 07:42:43;;;;;;;2.67;1.90;;;43.50;51.90;;;;;;5071399;28;20579;-82
2022/06/30 07:45:13;;;;;;;4.10;2.53;;;43.90;50.70;;;;;;5073156;28;20566;-83
2022/06/30 07:47:39;;;;;;;2.53;2.33;;;44.10;50.50;;;;;;5071867;28;20690;-83
2022/06/30 07:50:06;;;;;;;3.20;2.60;;;44.50;49.90;;;;;;5071048;28;20981;-83
2022/06/30 07:52:35;;;;;;;2.00;1.80;;;44.80;49.00;;;;;;5072707;28;20230;-83
2022/06/30 07:55:02;;;;;;;2.33;2.10;;;45.20;48.80;;;;;;5072622;28;20574;-83
2022/06/30 07:57:29;;;;;;;3.03;2.47;;;45.40;47.90;;;;;;5072766;28;20575;-83
2022/06/30 07:59:55;;;;;;;2.80;1.60;;;45.70;47.00;;;;;;5072625;28;20636;-83
2022/06/30 08:02:22;;;;;;;2.27;2.00;;;46.00;46.60;;;;;;5074985;28;20597;-83
2022/06/30 08:04:48;;;;;;;3.03;2.20;;;46.20;45.40;;;;;;5075949;28;20574;-83
2022/06/30 08:07:14;;;;;;;2.93;1.63;;;46.40;44.90;;;;;;5076802;28;20570;-83
2022/06/30 08:09:40;;;;;;;4.70;2.63;;;46.60;44.40;;;;;;5077181;28;21363;-83
2022/06/30 08:12:06;;;;;;;2.40;2.20;;;46.80;43.60;;;;;;5077560;28;20612;-83
2022/06/30 08:14:33;;;;;;;3.93;2.53;;;46.80;43.30;;;;;;5077255;28;20206;-83
2022/06/30 08:17:00;;;;;;;2.40;2.20;;;47.00;43.10;;;;;;5080035;28;20578;-83
2022/06/30 08:19:27;;;;;;;2.73;2.30;;;47.20;43.20;;;;;;5079194;28;20570;-82
2022/06/30 08:21:52;;;;;;;1.97;1.77;;;47.20;41.10;;;;;;5077697;28;20649;-82
2022/06/30 08:24:18;;;;;;;2.30;2.10;;;47.30;40.90;;;;;;5078791;28;20172;-82
2022/06/30 08:26:44;;;;;;;2.33;1.93;;;47.20;41.40;;;;;;5079342;28;20179;-82
2022/06/30 08:29:12;;;;;;;3.93;2.30;;;47.30;40.80;;;;;;5078928;28;20223;-82
2022/06/30 08:31:39;;;;;;;2.13;1.93;;;47.50;40.20;;;;;;5077502;28;20192;-82
2022/06/30 08:34:05;;;;;;;2.30;1.63;;;47.50;40.10;;;;;;5079555;28;20613;-82
2022/06/30 08:36:31;;;;;;;2.57;1.77;;;47.50;39.20;;;;;;5077899;28;20581;-82
2022/06/30 08:38:57;;;;;;;2.90;1.90;;;47.60;38.50;;;;;;5081444;28;20562;-81
2022/06/30 08:44:08;;;;;;;3.63;1.80;;;47.00;37.80;;;;;;5073962;28;20171;-83
2022/06/30 08:46:38;;;;;;;1.90;1.47;;;46.90;37.10;;;;;;5053597;28;20587;-80
2022/06/30 08:49:05;;;;;;;2.97;1.83;;;46.70;37.60;;;;;;5052503;28;20622;-80
2022/06/30 08:51:33;;;;;;;2.60;1.80;;;46.30;37.00;;;;;;5056584;28;20621;-81
2022/06/30 08:54:00;;;;;;;2.17;1.80;;;46.20;37.60;;;;;;5054877;28;20670;-82
2022/06/30 08:56:34;;;;;;;1.90;1.13;;;46.00;38.30;;;;;;5058086;28;20563;-81
2022/06/30 08:59:04;;;;;;;2.43;1.13;;;45.90;37.80;;;;;;5054164;28;20973;-81
2022/06/30 09:01:31;;;;;;;2.00;1.20;;;45.80;37.70;;;;;;5053868;28;20596;-81
2022/06/30 09:03:57;;;;;;;2.17;1.50;;;45.80;37.10;;;;;;5054138;28;20574;-80
2022/06/30 09:06:23;;;;;;;3.63;1.37;;;45.70;36.30;;;;;;5053240;28;20578;-80
2022/06/30 09:08:50;;;;;;;2.00;1.23;;;45.60;36.30;;;;;;5055480;28;20670;-80
2022/06/30 09:11:16;;;;;;;1.90;1.10;;;45.50;37.00;;;;;;5056160;28;20993;-81
2022/06/30 09:13:45;;;;;;;2.20;1.07;;;45.40;36.70;;;;;;5061551;28;20587;-82
2022/06/30 09:16:12;;;;;;;2.67;1.17;;;45.30;36.00;;;;;;5057393;28;20800;-81
2022/06/30 09:18:39;;;;;;;1.43;1.00;;;45.30;35.70;;;;;;5056338;28;20953;-80
2022/06/30 09:21:15;;;;;;;1.60;1.37;;;45.20;36.40;;;;;;5061263;28;20630;-79
2022/06/30 09:23:45;;;;;;;1.33;0.90;;;45.20;36.10;;;;;;5059643;28;20563;-79
2022/06/30 09:26:22;;;;;;;1.90;1.17;;;45.10;35.60;;;;;;5052297;28;20686;-79
2022/06/30 09:28:56;;;;;;;2.00;1.20;;;45.10;35.60;;;;;;5053509;28;20590;-81
2022/06/30 09:31:40;;;;;;;1.60;0.90;;;45.10;35.50;;;;;;5054482;28;20603;-80
2022/06/30 09:34:21;;;;;;;1.60;1.13;;;45.00;35.60;;;;;;5057047;28;20574;-80
2022/06/30 09:36:53;;;;;;;2.63;1.00;;;45.00;34.90;;;;;;5040178;28;20560;-81
2022/06/30 09:39:22;;;;;;;1.77;1.17;;;44.90;35.40;;;;;;5036897;28;20623;-80
2022/06/30 09:41:50;;;;;;;2.47;1.20;;;44.90;35.80;;;;;;5034507;28;20596;-81
2022/06/30 09:44:16;;;;;;;1.30;0.87;;;44.80;34.80;;;;;;5055648;28;21216;-81
2022/06/30 09:47:02;;;;;;;2.77;1.20;;;44.80;34.80;;;;;;5059131;28;20610;-80
2022/06/30 09:49:42;;;;;;;1.70;0.87;;;44.80;34.70;;;;;;5049632;28;20730;-81
2022/06/30 09:52:20;;;;;;;1.50;1.10;;;44.90;34.30;;;;;;5070273;28;21054;-80
2022/06/30 09:55:06;;;;;;;1.70;1.00;;;45.00;35.20;;;;;;5077007;28;21251;-81
2022/06/30 09:57:37;;;;;;;2.10;1.00;;;45.00;34.20;;;;;;5076140;28;20571;-80
2022/06/30 10:00:15;;;;;;;1.50;1.00;;;45.10;35.00;;;;;;5074146;28;20606;-81
2022/06/30 10:02:47;;;;;;;1.50;0.80;;;45.10;34.00;;;;;;5054068;28;21002;-80
2022/06/30 10:05:15;;;;;;;1.97;1.00;;;45.10;34.60;;;;;;5037534;28;20594;-80
2022/06/30 10:07:41;;;;;;;1.57;1.13;;;45.10;34.60;;;;;;5057450;28;20987;-81
2022/06/30 10:10:13;;;;;;;5.10;1.67;;;45.00;34.60;;;;;;5056400;28;20971;-79
2022/06/30 10:12:40;;;;;;;1.50;0.80;;;45.00;34.80;;;;;;5054039;28;20599;-79
2022/06/30 10:15:08;;;;;;;4.30;1.60;;;45.00;34.60;;;;;;5054558;28;20570;-82
2022/06/30 10:17:46;;;;;;;2.30;1.00;;;44.90;34.00;;;;;;5053866;28;20646;-81
2022/06/30 10:20:12;;;;;;;1.93;1.07;;;44.70;33.60;;;;;;5053247;28;20666;-80
2022/06/30 10:22:40;;;;;;;3.60;1.43;;;44.60;33.80;;;;;;5053017;28;20630;-80
2022/06/30 10:25:06;;;;;;;5.57;1.43;;;44.40;33.80;;;;;;5052744;28;20180;-81
2022/06/30 10:27:32;;;;;;;3.13;1.30;;;44.20;33.60;;;;;;5055078;28;20598;-81
2022/06/30 10:30:05;;;;;;;4.30;1.30;;;43.80;33.40;;;;;;5072940;28;20614;-81
2022/06/30 10:33:06;;;;;;;2.40;1.30;;;43.40;33.80;;;;;;5070737;28;20729;-81
2022/06/30 10:35:41;;;;;;;2.37;1.57;;;43.10;34.50;;;;;;5074719;28;20566;-80
2022/06/30 10:38:31;;;;;;;11.23;2.00;;;42.80;34.80;;;;;;5072028;28;20574;-81
2022/06/30 10:41:11;;;;;;;2.10;1.20;;;42.50;34.70;;;;;;5070762;28;20633;-81
2022/06/30 10:44:04;;;;;;;2.80;1.33;;;42.20;34.80;;;;;;5071486;28;20982;-80
2022/06/30 10:46:56;;;;;;;2.27;1.30;;;41.80;35.00;;;;;;5060164;28;20610;-81
2022/06/30 10:49:24;;;;;;;3.30;1.13;;;41.40;35.30;;;;;;5052782;28;20635;-81
2022/06/30 10:52:11;;;;;;;2.83;1.40;;;41.10;35.70;;;;;;5052702;28;20604;-80
2022/06/30 10:54:44;;;;;;;4.40;1.80;;;40.90;36.10;;;;;;5044334;28;20587;-80
2022/06/30 10:57:12;;;;;;;3.50;1.30;;;40.80;36.90;;;;;;5051303;28;21191;-81
2022/06/30 10:59:42;;;;;;;1.90;1.43;;;40.70;36.60;;;;;;5052029;28;20606;-80
2022/06/30 11:02:08;;;;;;;2.43;1.57;;;40.60;37.00;;;;;;5053452;28;21354;-80
2022/06/30 11:04:35;;;;;;;3.10;1.20;;;40.60;37.50;;;;;;5053075;28;20621;-80
2022/06/30 11:07:07;;;;;;;2.80;1.30;;;40.60;37.50;;;;;;5047244;28;20183;-80
2022/06/30 11:09:47;;;;;;;9.00;1.70;;;40.60;37.50;;;;;;5054705;28;20642;-81
2022/06/30 11:12:29;;;;;;;4.23;1.50;;;40.40;36.80;;;;;;5056253;28;20634;-80
2022/06/30 11:14:57;;;;;;;3.00;1.20;;;40.10;36.90;;;;;;5057318;28;20620;-79
2022/06/30 11:17:25;;;;;;;1.80;0.93;;;39.90;36.90;;;;;;5064176;28;20678;-79
2022/06/30 11:20:12;;;;;;;2.37;1.50;;;39.60;37.00;;;;;;5041193;28;20624;-79
2022/06/30 11:22:38;;;;;;;2.60;1.40;;;39.40;37.20;;;;;;5052931;28;20622;-79
2022/06/30 11:25:07;;;;;;;2.10;1.23;;;39.00;37.20;;;;;;5060487;28;20578;-80
2022/06/30 11:27:36;;;;;;;3.50;2.03;;;38.60;37.50;;;;;;5054486;28;20626;-80
2022/06/30 11:30:10;;;;;;;3.73;1.10;;;38.30;37.70;;;;;;5062472;28;20672;-81
2022/06/30 11:32:37;;;;;;;2.30;1.27;;;38.10;38.10;;;;;;5072520;28;20604;-80
2022/06/30 11:35:04;;;;;;;3.60;1.33;;;38.00;38.40;;;;;;5078354;28;20960;-81
2022/06/30 11:37:33;;;;;;;2.30;1.30;;;37.80;38.40;;;;;;5076747;28;20567;-80
2022/06/30 11:40:01;;;;;;;2.07;1.10;;;37.80;38.60;;;;;;5075947;28;20644;-82
2022/06/30 11:42:27;;;;;;;3.97;1.10;;;37.70;39.40;;;;;;5074502;28;20679;-82
2022/06/30 11:44:53;;;;;;;3.43;1.50;;;37.70;39.60;;;;;;5073791;28;20602;-81
2022/06/30 11:47:22;;;;;;;5.73;1.47;;;37.70;39.70;;;;;;5072983;28;20563;-81
2022/06/30 11:49:49;;;;;;;2.00;1.10;;;37.80;40.40;;;;;;5044228;28;20997;-82
2022/06/30 11:52:41;;;;;;;3.67;1.57;;;37.90;40.00;;;;;;5050197;28;20604;-82
2022/06/30 11:55:12;;;;;;;2.53;1.00;;;37.90;39.50;;;;;;5049659;28;21036;-82
2022/06/30 11:57:42;;;;;;;4.00;1.07;;;37.90;39.40;;;;;;5051344;28;20571;-82
2022/06/30 12:00:20;;;;;;;6.43;2.33;;;37.90;39.40;;;;;;5050615;28;21249;-82
2022/06/30 12:02:46;;;;;;;2.17;1.30;;;37.80;39.60;;;;;;5049470;28;20934;-82
2022/06/30 12:05:19;;;;;;;2.83;1.50;;;37.80;39.80;;;;;;5051719;28;20571;-83
2022/06/30 12:07:46;;;;;;;2.37;1.00;;;37.70;39.80;;;;;;5050060;28;20571;-83
2022/06/30 12:10:14;;;;;;;4.10;1.40;;;37.80;39.60;;;;;;5050628;28;20718;-82
2022/06/30 12:12:41;;;;;;;2.57;1.03;;;37.70;39.90;;;;;;5050684;28;20595;-82
2022/06/30 12:15:14;;;;;;;2.37;0.93;;;37.70;39.60;;;;;;5050744;28;20645;-82
2022/06/30 12:17:56;;;;;;;2.70;1.27;;;37.60;39.40;;;;;;5056322;28;20563;-81
2022/06/30 12:20:26;;;;;;;11.07;1.50;;;37.60;39.60;;;;;;5051034;28;20593;-82
2022/06/30 12:22:53;;;;;;;2.07;1.13;;;37.50;39.60;;;;;;5048417;28;20596;-80
2022/06/30 12:25:20;;;;;;;3.13;1.50;;;37.50;40.10;;;;;;5054226;28;20579;-80
2022/06/30 12:27:51;;;;;;;3.70;1.20;;;37.50;40.10;;;;;;5051528;28;20598;-80
2022/06/30 12:30:24;;;;;;;6.23;1.50;;;37.60;40.60;;;;;;5048851;28;20643;-81
2022/06/30 12:33:04;;;;;;;3.80;1.60;;;37.60;40.60;;;;;;5039781;22;20684;-80
2022/06/30 12:35:32;;;;;;;1.90;1.40;;;37.60;40.30;;;;;;5010508;28;20616;-80
2022/06/30 12:38:10;;;;;;;3.00;1.30;;;37.60;39.90;;;;;;5010638;28;20615;-80
2022/06/30 12:40:38;;;;;;;2.60;1.37;;;37.50;39.90;;;;;;5010178;28;20561;-80
2022/06/30 12:43:04;;;;;;;2.47;1.20;;;37.40;39.70;;;;;;4977785;28;21258;-81
2022/06/30 12:45:42;;;;;;;2.43;1.30;;;37.20;39.80;;;;;;4958294;28;20598;-81
2022/06/30 12:48:09;;;;;;;2.60;1.27;;;36.90;40.00;;;;;;4957776;28;20592;-80
2022/06/30 12:50:37;;;;;;;2.77;1.33;;;36.70;40.20;;;;;;4992649;28;20618;-80
2022/06/30 12:53:24;;;;;;;4.60;1.37;;;36.50;40.20;;;;;;4994425;28;20598;-81
2022/06/30 12:56:00;;;;;;;3.70;1.50;;;36.30;40.40;;;;;;4977185;28;20570;-81
2022/06/30 12:58:42;;;;;;;2.67;1.63;;;36.10;40.50;;;;;;4994936;28;20573;-80
2022/06/30 13:01:08;;;;;;;3.83;1.40;;;35.90;40.30;;;;;;4976445;28;20724;-80